createdAt,value
2022-08-04T06:19:56.723Z,2.50
2022-08-04T06:20:34.494Z,2.75
2022-08-04T06:23:08.951Z,2.72
2022-08-04T06:25:44.402Z,2.63
2022-08-04T06:28:14.425Z,2.50
2022-08-04T06:30:42.837Z,2.70
2022-08-04T06:33:24.863Z,2.60
2022-08-04T06:35:55.603Z,2.40
2022-08-04T06:38:25.781Z,2.58
2022-08-04T06:40:58.130Z,2.80
2022-08-04T06:46:02.443Z,2.50
2022-08-04T06:48:33.539Z,2.00
2022-08-04T07:52:15.283Z,2.20
2022-08-04T07:54:45.028Z,2.40
2022-08-04T07:57:19.163Z,2.25
2022-08-04T08:00:01.549Z,2.20
2022-08-04T08:02:31.999Z,2.80
2022-08-04T08:05:00.659Z,2.20
2022-08-04T08:07:28.984Z,1.90
2022-08-04T08:09:57.187Z,2.47
2022-08-04T08:12:37.745Z,2.30
2022-08-04T08:15:15.789Z,2.25
2022-08-04T08:17:58.861Z,2.22
2022-08-04T08:20:33.473Z,2.20
2022-08-04T08:23:04.119Z,2.10
2022-08-04T08:25:34.310Z,1.75
2022-08-04T08:28:05.288Z,1.75
2022-08-04T08:30:34.740Z,1.75
2022-08-04T08:33:08.503Z,2.15
2022-08-04T08:35:53.169Z,1.92
2022-08-04T08:38:35.953Z,1.83
2022-08-04T08:41:37.358Z,1.98
2022-08-04T08:44:38.639Z,2.10
2022-08-04T08:47:21.337Z,1.85
2022-08-04T08:50:38.446Z,2.20
2022-08-04T08:53:24.629Z,1.60
2022-08-04T08:56:13.098Z,2.08
2022-08-04T08:59:01.269Z,1.80
2022-08-04T09:01:45.912Z,2.03
2022-08-04T09:04:43.413Z,1.90
2022-08-04T09:07:34.072Z,1.67
2022-08-04T09:10:17.010Z,1.90
2022-08-04T09:12:51.982Z,1.80
2022-08-04T09:15:31.318Z,1.90
2022-08-04T09:18:07.053Z,1.70
2022-08-04T09:20:41.576Z,1.83
2022-08-04T09:23:20.162Z,2.22
2022-08-04T09:25:55.743Z,1.55
2022-08-04T09:28:52.349Z,1.80
2022-08-04T09:31:18.679Z,2.15
2022-08-04T09:33:57.436Z,1.98
2022-08-04T09:36:33.784Z,2.10
2022-08-04T09:39:16.173Z,1.90
2022-08-04T09:41:56.139Z,1.70
2022-08-04T09:44:50.053Z,1.90
2022-08-04T09:47:39.797Z,2.15
2022-08-04T09:50:25.700Z,1.80
2022-08-04T09:53:00.691Z,1.92
2022-08-04T09:55:53.176Z,2.22
2022-08-04T09:58:35.287Z,1.95
2022-08-04T10:01:07.633Z,2.10
2022-08-04T10:03:39.383Z,2.28
2022-08-04T10:06:45.012Z,2.40
2022-08-04T10:09:35.838Z,1.70
2022-08-04T10:12:18.019Z,2.00
2022-08-04T10:14:54.208Z,2.03
2022-08-04T10:17:52.102Z,2.00
2022-08-04T10:20:46.481Z,1.95
2022-08-04T10:23:29.149Z,1.90
2022-08-04T10:26:08.448Z,2.05
2022-08-04T10:28:45.582Z,2.28
2022-08-04T10:31:20.959Z,1.83
2022-08-04T10:33:54.872Z,2.10
2022-08-04T10:36:28.899Z,2.22
2022-08-04T10:39:02.694Z,2.50
2022-08-04T10:41:37.493Z,2.30
2022-08-04T10:44:23.701Z,1.77
2022-08-04T10:46:57.031Z,1.98
2022-08-04T10:49:34.412Z,1.88
2022-08-04T10:52:08.981Z,2.20
2022-08-04T10:54:48.352Z,2.03
2022-08-04T10:57:22.852Z,2.17
2022-08-04T11:00:00.558Z,2.10
2022-08-04T11:02:39.275Z,2.03
2022-08-04T11:05:18.627Z,1.80
2022-08-04T11:07:48.938Z,2.33
2022-08-04T11:10:21.721Z,1.88
2022-08-04T11:12:57.972Z,2.60
2022-08-04T11:15:35.914Z,1.77
2022-08-04T11:18:16.286Z,2.15
2022-08-04T11:20:53.096Z,2.10
2022-08-04T11:23:28.100Z,2.42
2022-08-04T11:26:02.584Z,2.00
2022-08-04T11:28:43.887Z,2.10
2022-08-04T11:31:21.102Z,2.20
2022-08-04T11:33:58.073Z,2.15
2022-08-04T11:36:37.758Z,2.05
2022-08-04T11:39:11.584Z,1.60
2022-08-04T11:41:50.903Z,2.35
2022-08-04T11:44:27.813Z,2.30
2022-08-04T11:47:03.813Z,1.77
2022-08-04T11:49:56.019Z,2.33
2022-08-04T11:52:27.554Z,2.22
2022-08-04T11:54:57.703Z,2.25
2022-08-04T11:57:35.958Z,2.60
2022-08-04T12:00:10.440Z,2.03
2022-08-04T12:03:03.396Z,2.28
2022-08-04T12:05:37.860Z,2.38
2022-08-04T12:08:27.241Z,2.47
2022-08-04T12:11:07.877Z,2.20
2022-08-04T12:13:45.263Z,2.42
2022-08-04T12:16:19.265Z,2.30
2022-08-04T12:21:30.406Z,2.50
2022-08-04T12:24:04.000Z,2.47
2022-08-04T13:10:40.920Z,3.00
2022-08-04T16:00:21.897Z,3.72
2022-08-04T16:02:50.573Z,3.25
2022-08-04T16:10:46.729Z,3.70
2022-08-04T16:13:19.703Z,3.70
2022-08-04T16:15:53.784Z,3.53
2022-08-04T16:18:40.666Z,3.83
2022-08-04T16:21:20.334Z,3.08
2022-08-04T16:24:30.536Z,3.88
2022-08-04T16:37:32.869Z,3.33
2022-08-04T17:06:35.961Z,2.42
2022-08-04T17:09:07.222Z,2.53
